createdAt,value
2023-01-01T00:00:40.983Z,89294.00
2023-01-01T00:01:40.914Z,89266.00
2023-01-01T00:02:40.852Z,89270.00
2023-01-01T00:03:40.842Z,89288.00
2023-01-01T00:04:40.812Z,89290.00
2023-01-01T00:05:40.782Z,89308.00
2023-01-01T00:06:40.781Z,89304.00
2023-01-01T00:07:40.744Z,89296.00
2023-01-01T00:08:40.741Z,89290.00
2023-01-01T00:09:40.713Z,89284.00
2023-01-01T00:10:40.677Z,89304.00
2023-01-01T00:11:40.647Z,89298.00
2023-01-01T00:12:40.635Z,89302.00
2023-01-01T00:13:40.621Z,89300.00
2023-01-01T00:14:40.607Z,89310.00
2023-01-01T00:15:40.577Z,89302.00
2023-01-01T00:16:40.592Z,89296.00
2023-01-01T00:17:40.544Z,89300.00
2023-01-01T00:18:40.521Z,89298.00
2023-01-01T00:19:40.483Z,89296.00
2023-01-01T00:20:40.460Z,89290.00
2023-01-01T00:21:40.433Z,89298.00
2023-01-01T00:22:56.585Z,89290.00
2023-01-01T00:23:41.375Z,89282.00
2023-01-01T00:24:40.353Z,89298.00
2023-01-01T00:25:40.337Z,89296.00
2023-01-01T00:26:40.318Z,89296.00
2023-01-01T00:27:40.285Z,89296.00
2023-01-01T00:28:40.257Z,89300.00
2023-01-01T00:29:40.233Z,89290.00
2023-01-01T00:30:40.205Z,89286.00
2023-01-01T00:31:40.224Z,89296.00
2023-01-01T00:32:40.159Z,89296.00
2023-01-01T00:33:40.139Z,89294.00
2023-01-01T00:34:40.119Z,89292.00
2023-01-01T00:35:40.095Z,89304.00
2023-01-01T00:36:40.065Z,89302.00
2023-01-01T00:37:46.388Z,89292.00
2023-01-01T00:38:41.014Z,89298.00
2023-01-01T00:39:40.005Z,89292.00
2023-01-01T00:40:39.998Z,89300.00
2023-01-01T00:41:39.952Z,89302.00
2023-01-01T00:42:39.930Z,89318.00
2023-01-01T00:43:39.912Z,89306.00
2023-01-01T00:44:39.886Z,89304.00
2023-01-01T00:45:39.942Z,89314.00
2023-01-01T00:46:39.838Z,89308.00
2023-01-01T00:47:39.810Z,89302.00
2023-01-01T00:48:39.795Z,89316.00
2023-01-01T00:49:39.762Z,89310.00
2023-01-01T00:50:39.740Z,89310.00
2023-01-01T00:51:39.693Z,89312.00
2023-01-01T00:52:39.680Z,89318.00
2023-01-01T00:53:39.663Z,89327.00
2023-01-01T00:54:39.662Z,89318.00
2023-01-01T00:55:39.617Z,89316.00
2023-01-01T00:56:39.576Z,89314.00
2023-01-01T00:57:39.555Z,89325.00
2023-01-01T00:58:39.522Z,89325.00
2023-01-01T00:59:39.514Z,89337.00
2023-01-01T01:00:39.468Z,89331.00
2023-01-01T01:01:39.539Z,89325.00
2023-01-01T01:02:39.631Z,89333.00
2023-01-01T01:03:39.397Z,89327.00
2023-01-01T01:04:39.370Z,89339.00
2023-01-01T01:05:39.359Z,89339.00
2023-01-01T01:06:39.320Z,89333.00
2023-01-01T01:07:39.296Z,89339.00
2023-01-01T01:08:39.298Z,89345.00
2023-01-01T01:09:39.264Z,89341.00
2023-01-01T01:10:39.240Z,89347.00
2023-01-01T01:11:39.213Z,89341.00
2023-01-01T01:12:39.192Z,89347.00
2023-01-01T01:13:39.170Z,89351.00
2023-01-01T01:14:39.123Z,89349.00
2023-01-01T01:15:39.103Z,89357.00
2023-01-01T01:16:39.146Z,89355.00
2023-01-01T01:17:39.055Z,89353.00
2023-01-01T01:18:39.030Z,89357.00
2023-01-01T01:19:39.008Z,89355.00
2023-01-01T01:20:38.973Z,89363.00
2023-01-01T01:21:38.947Z,89353.00
2023-01-01T01:22:38.931Z,89365.00
2023-01-01T01:23:38.899Z,89361.00
2023-01-01T01:24:38.874Z,89367.00
2023-01-01T01:25:38.853Z,89367.00
2023-01-01T01:26:38.830Z,89368.00
2023-01-01T01:27:38.812Z,89359.00
2023-01-01T01:28:41.328Z,89372.00
2023-01-01T01:29:39.770Z,89370.00
2023-01-01T01:30:38.756Z,89363.00
2023-01-01T01:31:38.709Z,89367.00
2023-01-01T01:32:38.682Z,89368.00
2023-01-01T01:33:38.656Z,89365.00
2023-01-01T01:34:38.623Z,89363.00
2023-01-01T01:35:38.621Z,89359.00
2023-01-01T01:36:38.576Z,89357.00
2023-01-01T01:37:38.549Z,89359.00
2023-01-01T01:38:38.524Z,89363.00
2023-01-01T01:39:38.490Z,89361.00
2023-01-01T01:40:38.471Z,89363.00
2023-01-01T01:41:38.452Z,89359.00
2023-01-01T01:42:38.413Z,89359.00
2023-01-01T01:43:38.393Z,89370.00
2023-01-01T01:44:38.364Z,89370.00
2023-01-01T01:45:38.345Z,89372.00
2023-01-01T01:46:38.323Z,89368.00
2023-01-01T01:47:38.297Z,89368.00
2023-01-01T01:48:38.276Z,89367.00
2023-01-01T01:49:38.243Z,89359.00
2023-01-01T01:50:38.228Z,89361.00
2023-01-01T01:51:38.201Z,89357.00
2023-01-01T01:52:38.178Z,89359.00
2023-01-01T01:53:38.174Z,89363.00
2023-01-01T01:54:38.137Z,89363.00
2023-01-01T01:55:38.120Z,89363.00
2023-01-01T01:56:38.088Z,89355.00
2023-01-01T01:57:38.064Z,89353.00
2023-01-01T01:58:38.043Z,89345.00
2023-01-01T01:59:38.039Z,89339.00
2023-01-01T02:00:38.012Z,89339.00
2023-01-01T02:01:38.040Z,89345.00
2023-01-01T02:02:38.262Z,89347.00
2023-01-01T02:03:37.937Z,89333.00
2023-01-01T02:04:37.909Z,89343.00
2023-01-01T02:05:37.885Z,89341.00
2023-01-01T02:06:37.867Z,89347.00
2023-01-01T02:07:37.844Z,89343.00
2023-01-01T02:08:37.808Z,89343.00
2023-01-01T02:09:37.786Z,89341.00
2023-01-01T02:10:37.758Z,89343.00
2023-01-01T02:11:37.733Z,89343.00
2023-01-01T02:12:37.722Z,89337.00
2023-01-01T02:13:37.685Z,89323.00
2023-01-01T02:14:37.656Z,89335.00
2023-01-01T02:15:37.666Z,89331.00
2023-01-01T02:16:37.618Z,89331.00
2023-01-01T02:17:39.510Z,89333.00
2023-01-01T02:18:37.559Z,89335.00
2023-01-01T02:19:37.545Z,89325.00
2023-01-01T02:20:37.521Z,89331.00
2023-01-01T02:21:37.499Z,89331.00
2023-01-01T02:22:37.479Z,89331.00
2023-01-01T02:23:37.454Z,89331.00
2023-01-01T02:24:37.428Z,89327.00
2023-01-01T02:25:37.415Z,89327.00
2023-01-01T02:26:37.375Z,89325.00
2023-01-01T02:27:37.348Z,89331.00
2023-01-01T02:28:37.330Z,89329.00
2023-01-01T02:29:37.307Z,89325.00
2023-01-01T02:30:37.270Z,89331.00
2023-01-01T02:31:37.348Z,89327.00
2023-01-01T02:32:37.228Z,89323.00
2023-01-01T02:33:37.200Z,89335.00
2023-01-01T02:34:37.182Z,89335.00
2023-01-01T02:35:37.150Z,89333.00
2023-01-01T02:36:37.132Z,89329.00
2023-01-01T02:37:37.105Z,89329.00
2023-01-01T02:38:37.070Z,89316.00
2023-01-01T02:39:37.043Z,89325.00
2023-01-01T02:40:37.014Z,89327.00
2023-01-01T02:41:36.992Z,89337.00
2023-01-01T02:42:36.964Z,89331.00
2023-01-01T02:43:36.941Z,89335.00
2023-01-01T02:44:36.909Z,89339.00
2023-01-01T02:45:36.885Z,89335.00
2023-01-01T02:46:36.861Z,89327.00
2023-01-01T02:47:36.843Z,89333.00
2023-01-01T02:48:36.815Z,89333.00
2023-01-01T02:49:36.786Z,89325.00
2023-01-01T02:50:36.761Z,89323.00
2023-01-01T02:51:36.733Z,89325.00
2023-01-01T02:52:36.713Z,89316.00
2023-01-01T02:53:36.688Z,89320.00
2023-01-01T02:54:36.666Z,89318.00
2023-01-01T02:55:36.655Z,89320.00
2023-01-01T02:56:36.636Z,89323.00
2023-01-01T02:57:36.607Z,89316.00
2023-01-01T02:58:36.638Z,89320.00
2023-01-01T02:59:36.589Z,89321.00
2023-01-01T03:00:36.555Z,89314.00
2023-01-01T03:01:36.629Z,89316.00
2023-01-01T03:02:36.615Z,89318.00
2023-01-01T03:03:36.551Z,89323.00
2023-01-01T03:04:36.485Z,89325.00
2023-01-01T03:05:36.463Z,89325.00
2023-01-01T03:06:36.439Z,89320.00
2023-01-01T03:07:36.435Z,89320.00
2023-01-01T03:08:36.411Z,89325.00
2023-01-01T03:09:36.381Z,89316.00
2023-01-01T03:10:36.364Z,89314.00
2023-01-01T03:11:36.344Z,89312.00
2023-01-01T03:12:36.325Z,89312.00
2023-01-01T03:13:36.291Z,89310.00
2023-01-01T03:14:36.283Z,89306.00
2023-01-01T03:15:36.254Z,89306.00
2023-01-01T03:16:36.257Z,89306.00
2023-01-01T03:17:36.218Z,89308.00
2023-01-01T03:18:36.188Z,89300.00
2023-01-01T03:19:36.173Z,89300.00
2023-01-01T03:20:36.146Z,89304.00
2023-01-01T03:21:36.128Z,89312.00
2023-01-01T03:23:49.530Z,89306.00
2023-01-01T03:24:45.140Z,89304.00
2023-01-01T03:25:44.119Z,89306.00
2023-01-01T03:26:44.108Z,89306.00
2023-01-01T03:27:44.078Z,89316.00
2023-01-01T03:28:44.064Z,89310.00
2023-01-01T03:29:44.040Z,89312.00
2023-01-01T03:30:44.011Z,89302.00
2023-01-01T03:31:43.992Z,89298.00
2023-01-01T03:32:43.976Z,89288.00
2023-01-01T03:33:43.963Z,89296.00
2023-01-01T03:34:43.944Z,89296.00
2023-01-01T03:35:43.918Z,89296.00
2023-01-01T03:36:43.916Z,89302.00
2023-01-01T03:37:43.877Z,89306.00
2023-01-01T03:38:43.865Z,89292.00
2023-01-01T03:39:43.844Z,89298.00
2023-01-01T03:40:43.832Z,89296.00
2023-01-01T03:41:43.798Z,89296.00
2023-01-01T03:42:43.817Z,89298.00
2023-01-01T03:43:43.763Z,89298.00
2023-01-01T03:44:43.738Z,89296.00
2023-01-01T03:45:43.719Z,89302.00
2023-01-01T03:46:43.714Z,89302.00
2023-01-01T03:47:43.671Z,89296.00
2023-01-01T03:48:43.644Z,89298.00
2023-01-01T03:49:43.620Z,89294.00
2023-01-01T03:50:43.602Z,89292.00
2023-01-01T03:51:43.577Z,89290.00
2023-01-01T03:52:43.557Z,89292.00
2023-01-01T03:53:43.537Z,89284.00
2023-01-01T03:54:43.503Z,89284.00
2023-01-01T03:55:43.477Z,89286.00
2023-01-01T03:56:43.468Z,89288.00
2023-01-01T03:57:43.461Z,89288.00
2023-01-01T03:58:43.432Z,89284.00
2023-01-01T03:59:43.407Z,89284.00
2023-01-01T04:00:43.389Z,89282.00
2023-01-01T04:01:43.574Z,89290.00
2023-01-01T04:02:43.452Z,89276.00
2023-01-01T04:03:43.325Z,89274.00
2023-01-01T04:04:43.301Z,89278.00
2023-01-01T04:05:43.269Z,89284.00
2023-01-01T04:06:43.251Z,89284.00
2023-01-01T04:08:51.271Z,89284.00
2023-01-01T04:09:51.241Z,89278.00
2023-01-01T04:10:51.215Z,89270.00
2023-01-01T04:11:51.199Z,89280.00
2023-01-01T04:12:51.158Z,89276.00
2023-01-01T04:13:51.118Z,89276.00
2023-01-01T04:14:51.083Z,89282.00
2023-01-01T04:15:51.106Z,89268.00
2023-01-01T04:16:51.030Z,89280.00
2023-01-01T04:17:51.002Z,89282.00
2023-01-01T04:18:50.957Z,89280.00
2023-01-01T04:19:55.003Z,89282.00
2023-01-01T04:20:50.886Z,89282.00
2023-01-01T04:21:50.874Z,89280.00
2023-01-01T04:22:50.839Z,89270.00
2023-01-01T04:23:50.805Z,89272.00
2023-01-01T04:24:50.788Z,89284.00
2023-01-01T04:25:50.744Z,89280.00
2023-01-01T04:26:50.715Z,89284.00
2023-01-01T04:27:50.692Z,89284.00
2023-01-01T04:28:50.648Z,89292.00
2023-01-01T04:29:50.614Z,89296.00
2023-01-01T04:30:50.583Z,89286.00
2023-01-01T04:31:50.547Z,89290.00
2023-01-01T04:32:50.518Z,89292.00
2023-01-01T04:33:50.475Z,89294.00
2023-01-01T04:34:50.439Z,89286.00
2023-01-01T04:35:50.407Z,89284.00
2023-01-01T04:36:50.367Z,89288.00
2023-01-01T04:37:50.355Z,89292.00
2023-01-01T04:38:50.312Z,89292.00
2023-01-01T04:39:50.267Z,89290.00
2023-01-01T04:40:50.227Z,89292.00
2023-01-01T04:41:50.196Z,89282.00
2023-01-01T04:42:50.177Z,89296.00
2023-01-01T04:43:50.128Z,89296.00
2023-01-01T04:44:50.087Z,89298.00
2023-01-01T04:45:50.104Z,89302.00
2023-01-01T04:46:51.457Z,89300.00
2023-01-01T04:47:50.015Z,89306.00
2023-01-01T04:48:49.967Z,89304.00
2023-01-01T04:49:49.951Z,89306.00
2023-01-01T04:50:49.902Z,89308.00
2023-01-01T04:51:49.870Z,89304.00
2023-01-01T04:52:49.841Z,89310.00
2023-01-01T04:53:49.829Z,89300.00
2023-01-01T04:54:49.803Z,89318.00
2023-01-01T04:55:49.765Z,89312.00
2023-01-01T04:56:49.746Z,89314.00
2023-01-01T04:57:49.685Z,89304.00
2023-01-01T04:58:49.659Z,89310.00
2023-01-01T04:59:49.637Z,89308.00
2023-01-01T05:00:49.695Z,89310.00
2023-01-01T05:01:49.882Z,89318.00
2023-01-01T05:02:49.606Z,89314.00
2023-01-01T05:03:49.505Z,89306.00
2023-01-01T05:04:49.454Z,89312.00
2023-01-01T05:05:51.440Z,89306.00
2023-01-01T05:06:49.397Z,89310.00
2023-01-01T05:07:49.356Z,89310.00
2023-01-01T05:08:49.361Z,89314.00
2023-01-01T05:09:49.300Z,89314.00
2023-01-01T05:10:49.286Z,89325.00
2023-01-01T05:11:49.240Z,89298.00
2023-01-01T05:12:49.193Z,89312.00
2023-01-01T05:13:49.184Z,89318.00
2023-01-01T05:14:49.128Z,89323.00
2023-01-01T05:15:49.111Z,89327.00
2023-01-01T05:16:49.132Z,89321.00
2023-01-01T05:17:49.048Z,89327.00
2023-01-01T05:18:49.016Z,89329.00
2023-01-01T05:19:48.970Z,89341.00
2023-01-01T05:20:48.939Z,89339.00
2023-01-01T05:21:48.898Z,89333.00
2023-01-01T05:22:48.871Z,89339.00
2023-01-01T05:23:48.846Z,89349.00
2023-01-01T05:24:48.809Z,89335.00
2023-01-01T05:25:48.771Z,89337.00
2023-01-01T05:26:48.727Z,89339.00
2023-01-01T05:27:48.698Z,89339.00
2023-01-01T05:28:48.667Z,89341.00
2023-01-01T05:29:48.630Z,89339.00
2023-01-01T05:30:48.598Z,89339.00
2023-01-01T05:31:48.614Z,89343.00
2023-01-01T05:32:48.534Z,89337.00
2023-01-01T05:33:48.525Z,89341.00
2023-01-01T05:34:48.476Z,89343.00
2023-01-01T05:35:48.428Z,89343.00
2023-01-01T05:36:48.388Z,89343.00
2023-01-01T05:37:48.356Z,89345.00
2023-01-01T05:38:48.324Z,89353.00
2023-01-01T05:39:48.297Z,89339.00
2023-01-01T05:40:48.245Z,89341.00
2023-01-01T05:41:48.210Z,89339.00
2023-01-01T05:42:48.173Z,89333.00
2023-01-01T05:43:48.169Z,89333.00
2023-01-01T05:44:48.113Z,89339.00
2023-01-01T05:45:48.090Z,89339.00
2023-01-01T05:46:48.036Z,89337.00
2023-01-01T05:47:48.010Z,89339.00
2023-01-01T05:48:47.979Z,89337.00
2023-01-01T05:49:47.936Z,89341.00
2023-01-01T05:50:47.898Z,89339.00
2023-01-01T05:51:47.865Z,89337.00
2023-01-01T05:52:47.829Z,89349.00
2023-01-01T05:53:47.804Z,89351.00
2023-01-01T05:54:47.754Z,89355.00
2023-01-01T05:55:47.727Z,89351.00
2023-01-01T05:56:47.684Z,89355.00
2023-01-01T05:57:47.657Z,89353.00
2023-01-01T05:58:47.625Z,89361.00
2023-01-01T05:59:47.586Z,89353.00
2023-01-01T06:00:47.591Z,89349.00
2023-01-01T06:01:47.617Z,89359.00
2023-01-01T06:02:47.536Z,89365.00
2023-01-01T06:03:47.450Z,89361.00
2023-01-01T06:04:47.470Z,89363.00
2023-01-01T06:05:47.384Z,89368.00
2023-01-01T06:06:47.367Z,89367.00
2023-01-01T06:07:48.843Z,89368.00
2023-01-01T06:08:47.281Z,89367.00
2023-01-01T06:09:47.261Z,89363.00
2023-01-01T06:10:47.220Z,89365.00
2023-01-01T06:11:47.199Z,89365.00
2023-01-01T06:12:47.162Z,89361.00
2023-01-01T06:13:47.137Z,89357.00
2023-01-01T06:14:47.107Z,89353.00
2023-01-01T06:15:47.076Z,89365.00
2023-01-01T06:16:47.050Z,89367.00
2023-01-01T06:17:47.004Z,89367.00
2023-01-01T06:18:46.959Z,89368.00
2023-01-01T06:19:46.925Z,89367.00
2023-01-01T06:20:46.909Z,89370.00
2023-01-01T06:21:46.859Z,89376.00
2023-01-01T06:22:46.838Z,89370.00
2023-01-01T06:23:46.790Z,89365.00
2023-01-01T06:24:46.767Z,89368.00
2023-01-01T06:25:46.726Z,89365.00
2023-01-01T06:26:46.694Z,89367.00
2023-01-01T06:27:46.649Z,89376.00
2023-01-01T06:28:46.641Z,89367.00
2023-01-01T06:29:46.590Z,89370.00
2023-01-01T06:30:46.592Z,89372.00
2023-01-01T06:31:46.516Z,89370.00
2023-01-01T06:32:46.472Z,89365.00
2023-01-01T06:33:46.452Z,89370.00
2023-01-01T06:34:46.398Z,89370.00
2023-01-01T06:35:46.366Z,89370.00
2023-01-01T06:36:46.334Z,89365.00
2023-01-01T06:37:46.297Z,89370.00
2023-01-01T06:38:46.265Z,89376.00
2023-01-01T06:39:46.257Z,89374.00
2023-01-01T06:40:46.197Z,89372.00
2023-01-01T06:41:46.168Z,89372.00
2023-01-01T06:42:46.133Z,89370.00
2023-01-01T06:43:46.101Z,89372.00
2023-01-01T06:44:46.077Z,89376.00
2023-01-01T06:45:46.100Z,89376.00
2023-01-01T06:46:46.060Z,89374.00
2023-01-01T06:47:45.979Z,89374.00
2023-01-01T06:48:45.940Z,89382.00
2023-01-01T06:49:45.888Z,89384.00
2023-01-01T06:50:45.859Z,89384.00
2023-01-01T06:51:45.819Z,89380.00
2023-01-01T06:52:45.771Z,89382.00
2023-01-01T06:53:45.753Z,89382.00
2023-01-01T06:54:45.704Z,89382.00
2023-01-01T06:55:45.670Z,89384.00
2023-01-01T06:56:45.623Z,89378.00
2023-01-01T06:57:45.580Z,89384.00
2023-01-01T06:58:45.547Z,89384.00
2023-01-01T06:59:45.512Z,89380.00
2023-01-01T07:00:45.488Z,89386.00
2023-01-01T07:01:45.625Z,89386.00
2023-01-01T07:02:45.654Z,89384.00
2023-01-01T07:03:45.425Z,89386.00
2023-01-01T07:04:45.340Z,89384.00
2023-01-01T07:05:45.306Z,89388.00
2023-01-01T07:06:45.275Z,89390.00
2023-01-01T07:07:45.232Z,89386.00
2023-01-01T07:08:45.197Z,89388.00
2023-01-01T07:09:45.160Z,89382.00
2023-01-01T07:10:45.140Z,89386.00
2023-01-01T07:11:45.089Z,89390.00
2023-01-01T07:12:45.066Z,89398.00
2023-01-01T07:13:45.029Z,89398.00
2023-01-01T07:14:44.986Z,89394.00
2023-01-01T07:15:44.974Z,89392.00
2023-01-01T07:16:44.926Z,89384.00
2023-01-01T07:17:44.880Z,89384.00
2023-01-01T07:18:44.838Z,89388.00
2023-01-01T07:19:44.798Z,89390.00
2023-01-01T07:20:44.761Z,89394.00
2023-01-01T07:21:44.728Z,89394.00
2023-01-01T07:22:44.680Z,89394.00
2023-01-01T07:23:44.650Z,89392.00
2023-01-01T07:24:44.637Z,89392.00
2023-01-01T07:25:44.601Z,89400.00
2023-01-01T07:26:44.549Z,89398.00
2023-01-01T07:27:44.514Z,89406.00
2023-01-01T07:28:44.486Z,89402.00
2023-01-01T07:30:44.580Z,89404.00
2023-01-01T07:31:44.417Z,89400.00
2023-01-01T07:32:44.346Z,89410.00
2023-01-01T07:33:44.319Z,89410.00
2023-01-01T07:34:50.343Z,89414.00
2023-01-01T07:35:45.251Z,89406.00
2023-01-01T07:36:44.230Z,89410.00
2023-01-01T07:37:44.180Z,89416.00
2023-01-01T07:38:44.144Z,89420.00
2023-01-01T07:39:44.116Z,89410.00
2023-01-01T07:40:44.137Z,89410.00
2023-01-01T07:41:44.061Z,89414.00
2023-01-01T07:42:44.034Z,89406.00
2023-01-01T07:43:43.979Z,89414.00
2023-01-01T07:44:43.948Z,89412.00
2023-01-01T07:45:43.915Z,89414.00
2023-01-01T07:46:43.914Z,89420.00
2023-01-01T07:47:43.835Z,89416.00
2023-01-01T07:48:43.792Z,89414.00
2023-01-01T07:49:43.761Z,89418.00
2023-01-01T07:50:43.734Z,89416.00
2023-01-01T07:51:43.692Z,89412.00
2023-01-01T07:52:43.662Z,89408.00
2023-01-01T07:53:43.629Z,89406.00
2023-01-01T07:54:43.577Z,89404.00
2023-01-01T07:55:43.557Z,89402.00
2023-01-01T07:56:43.502Z,89410.00
2023-01-01T07:57:43.467Z,89408.00
2023-01-01T07:58:43.424Z,89404.00
2023-01-01T07:59:43.402Z,89412.00
2023-01-01T08:00:43.351Z,89412.00
2023-01-01T08:01:43.395Z,89406.00
2023-01-01T08:02:43.345Z,89404.00
2023-01-01T08:03:43.240Z,89406.00
2023-01-01T08:04:43.189Z,89406.00
2023-01-01T08:05:43.153Z,89404.00
2023-01-01T08:06:43.102Z,89402.00
2023-01-01T08:07:43.067Z,89400.00
2023-01-01T08:08:43.022Z,89404.00
2023-01-01T08:09:43.011Z,89404.00
2023-01-01T08:10:42.954Z,89398.00
2023-01-01T08:11:42.924Z,89404.00
2023-01-01T08:12:42.890Z,89398.00
2023-01-01T08:13:42.865Z,89408.00
2023-01-01T08:14:42.819Z,89400.00
2023-01-01T08:15:42.820Z,89412.00
2023-01-01T08:16:42.754Z,89410.00
2023-01-01T08:17:46.858Z,89408.00
2023-01-01T08:18:42.680Z,89406.00
2023-01-01T08:19:42.650Z,89400.00
2023-01-01T08:20:42.615Z,89398.00
2023-01-01T08:21:42.584Z,89402.00
2023-01-01T08:22:42.559Z,89402.00
2023-01-01T08:23:42.533Z,89398.00
2023-01-01T08:24:42.496Z,89406.00
2023-01-01T08:25:42.449Z,89404.00
2023-01-01T08:26:42.417Z,89394.00
2023-01-01T08:27:42.388Z,89400.00
2023-01-01T08:28:42.351Z,89396.00
2023-01-01T08:29:42.312Z,89390.00
2023-01-01T08:30:42.277Z,89392.00
2023-01-01T08:31:42.304Z,89386.00
2023-01-01T08:32:42.213Z,89388.00
2023-01-01T08:33:42.160Z,89388.00
2023-01-01T08:34:42.125Z,89392.00
2023-01-01T08:35:42.088Z,89388.00
2023-01-01T08:36:42.064Z,89390.00
2023-01-01T08:37:42.054Z,89392.00
2023-01-01T08:38:41.985Z,89386.00
2023-01-01T08:39:41.966Z,89378.00
2023-01-01T08:40:41.922Z,89380.00
2023-01-01T08:41:41.867Z,89378.00
2023-01-01T08:42:41.853Z,89378.00
2023-01-01T08:43:41.819Z,89378.00
2023-01-01T08:44:41.788Z,89380.00
2023-01-01T08:45:41.740Z,89376.00
2023-01-01T08:46:41.732Z,89376.00
2023-01-01T08:47:41.657Z,89378.00
2023-01-01T08:48:41.626Z,89374.00
2023-01-01T08:49:41.584Z,89370.00
2023-01-01T08:50:41.560Z,89380.00
2023-01-01T08:51:41.548Z,89380.00
2023-01-01T08:52:41.479Z,89378.00
2023-01-01T08:53:45.493Z,89368.00
2023-01-01T08:54:42.413Z,89370.00
2023-01-01T08:55:41.376Z,89368.00
2023-01-01T08:56:41.342Z,89372.00
2023-01-01T08:57:41.303Z,89380.00
2023-01-01T08:58:41.278Z,89376.00
2023-01-01T08:59:41.235Z,89374.00
2023-01-01T09:00:41.213Z,89374.00
2023-01-01T09:01:41.326Z,89372.00
2023-01-01T09:02:41.204Z,89384.00
2023-01-01T09:03:41.128Z,89382.00
2023-01-01T09:04:41.057Z,89380.00
2023-01-01T09:05:41.029Z,89374.00
2023-01-01T09:06:40.990Z,89378.00
2023-01-01T09:07:40.955Z,89374.00
2023-01-01T09:08:40.941Z,89374.00
2023-01-01T09:09:40.854Z,89372.00
2023-01-01T09:10:40.818Z,89378.00
2023-01-01T09:11:40.750Z,89382.00
2023-01-01T09:12:40.714Z,89376.00
2023-01-01T09:13:40.665Z,89382.00
2023-01-01T09:14:40.612Z,89386.00
2023-01-01T09:15:40.557Z,89380.00
2023-01-01T09:16:44.282Z,89386.00
2023-01-01T09:17:40.470Z,89374.00
2023-01-01T09:18:40.411Z,89376.00
2023-01-01T09:19:40.358Z,89372.00
2023-01-01T09:20:40.335Z,89380.00
2023-01-01T09:21:40.268Z,89384.00
2023-01-01T09:22:40.223Z,89390.00
2023-01-01T09:23:40.170Z,89380.00
2023-01-01T09:24:40.117Z,89376.00
2023-01-01T09:25:40.069Z,89382.00
2023-01-01T09:26:40.032Z,89390.00
2023-01-01T09:27:39.978Z,89374.00
2023-01-01T09:28:39.937Z,89390.00
2023-01-01T09:29:39.883Z,89384.00
2023-01-01T09:30:39.841Z,89390.00
2023-01-01T09:31:39.828Z,89388.00
2023-01-01T09:32:39.749Z,89384.00
2023-01-01T09:33:39.711Z,89380.00
2023-01-01T09:34:39.654Z,89378.00
2023-01-01T09:35:39.610Z,89384.00
2023-01-01T09:36:39.554Z,89378.00
2023-01-01T09:37:39.510Z,89372.00
2023-01-01T09:38:39.451Z,89370.00
2023-01-01T09:39:39.393Z,89380.00
2023-01-01T09:40:39.357Z,89378.00
2023-01-01T09:41:39.313Z,89380.00
2023-01-01T09:42:39.263Z,89368.00
2023-01-01T09:43:39.215Z,89372.00
2023-01-01T09:44:39.159Z,89372.00
2023-01-01T09:45:39.146Z,89372.00
2023-01-01T09:46:39.057Z,89384.00
2023-01-01T09:47:38.998Z,89370.00
2023-01-01T09:48:38.947Z,89374.00
2023-01-01T09:49:38.883Z,89376.00
2023-01-01T09:50:38.825Z,89365.00
2023-01-01T09:51:45.241Z,89367.00
2023-01-01T09:52:39.719Z,89370.00
2023-01-01T09:53:38.652Z,89363.00
2023-01-01T09:54:38.610Z,89370.00
2023-01-01T09:55:38.546Z,89368.00
2023-01-01T09:56:38.494Z,89363.00
2023-01-01T09:57:38.440Z,89365.00
2023-01-01T09:58:38.399Z,89372.00
2023-01-01T09:59:38.336Z,89357.00
2023-01-01T10:00:38.272Z,89361.00
2023-01-01T10:01:38.294Z,89351.00
2023-01-01T10:02:38.161Z,89363.00
2023-01-01T10:03:38.144Z,89359.00
2023-01-01T10:04:38.050Z,89355.00
2023-01-01T10:05:37.981Z,89357.00
2023-01-01T10:06:37.932Z,89353.00
2023-01-01T10:07:37.868Z,89353.00
2023-01-01T10:08:37.820Z,89351.00
2023-01-01T10:09:37.758Z,89337.00
2023-01-01T10:10:37.703Z,89345.00
2023-01-01T10:11:37.644Z,89351.00
2023-01-01T10:12:37.596Z,89345.00
2023-01-01T10:13:37.533Z,89337.00
2023-01-01T10:14:37.493Z,89351.00
2023-01-01T10:15:37.417Z,89349.00
2023-01-01T10:16:37.468Z,89345.00
2023-01-01T10:17:37.297Z,89337.00
2023-01-01T10:18:37.249Z,89339.00
2023-01-01T10:19:37.203Z,89355.00
2023-01-01T10:20:37.150Z,89337.00
2023-01-01T10:21:39.581Z,89335.00
2023-01-01T10:22:38.035Z,89343.00
2023-01-01T10:23:36.963Z,89333.00
2023-01-01T10:24:36.912Z,89337.00
2023-01-01T10:25:36.849Z,89329.00
2023-01-01T10:26:36.792Z,89331.00
2023-01-01T10:27:36.734Z,89331.00
2023-01-01T10:28:36.676Z,89333.00
2023-01-01T10:29:36.641Z,89333.00
2023-01-01T10:30:36.573Z,89323.00
2023-01-01T10:31:36.520Z,89339.00
2023-01-01T10:32:36.461Z,89321.00
2023-01-01T10:33:36.387Z,89329.00
2023-01-01T10:34:36.321Z,89331.00
2023-01-01T10:35:36.282Z,89335.00
2023-01-01T10:36:36.198Z,89327.00
2023-01-01T10:37:36.125Z,89323.00
2023-01-01T10:38:36.063Z,89323.00
2023-01-01T10:39:35.999Z,89325.00
2023-01-01T10:40:35.944Z,89323.00
2023-01-01T10:41:35.902Z,89316.00
2023-01-01T10:42:35.811Z,89325.00
2023-01-01T10:43:35.754Z,89316.00
2023-01-01T10:44:35.686Z,89323.00
2023-01-01T10:45:35.722Z,89320.00
2023-01-01T10:46:35.588Z,89331.00
2023-01-01T10:47:35.485Z,89323.00
2023-01-01T10:48:35.423Z,89320.00
2023-01-01T10:49:35.356Z,89323.00
2023-01-01T10:50:35.291Z,89316.00
2023-01-01T10:51:35.206Z,89321.00
2023-01-01T10:52:35.142Z,89321.00
2023-01-01T10:53:35.074Z,89320.00
2023-01-01T10:54:35.014Z,89321.00
2023-01-01T10:55:34.932Z,89321.00
2023-01-01T10:56:34.858Z,89316.00
2023-01-01T10:57:34.803Z,89314.00
2023-01-01T10:58:34.705Z,89312.00
2023-01-01T10:59:34.658Z,89314.00
2023-01-01T11:00:34.570Z,89318.00
2023-01-01T11:01:34.614Z,89314.00
2023-01-01T11:02:34.595Z,89312.00
2023-01-01T11:03:34.319Z,89310.00
2023-01-01T11:04:34.235Z,89314.00
2023-01-01T11:05:34.154Z,89321.00
2023-01-01T11:06:34.075Z,89302.00
2023-01-01T11:07:33.967Z,89314.00
2023-01-01T11:08:33.909Z,89310.00
2023-01-01T11:09:33.793Z,89306.00
2023-01-01T11:10:33.714Z,89304.00
2023-01-01T11:11:33.625Z,89310.00
2023-01-01T11:13:03.770Z,89302.00
2023-01-01T11:13:34.434Z,89300.00
2023-01-01T11:14:33.331Z,89308.00
2023-01-01T11:15:33.232Z,89306.00
2023-01-01T11:16:33.189Z,89302.00
2023-01-01T11:17:33.135Z,89308.00
2023-01-01T11:18:32.931Z,89300.00
2023-01-01T11:19:32.826Z,89294.00
2023-01-01T11:20:32.743Z,89296.00
2023-01-01T11:21:32.619Z,89298.00
2023-01-01T11:22:32.528Z,89290.00
2023-01-01T11:23:32.443Z,89300.00
2023-01-01T11:24:32.321Z,89300.00
2023-01-01T11:25:32.223Z,89294.00
2023-01-01T11:26:32.124Z,89298.00
2023-01-01T11:27:32.014Z,89292.00
2023-01-01T11:28:32.018Z,89294.00
2023-01-01T11:29:31.807Z,89296.00
2023-01-01T11:30:31.793Z,89286.00
2023-01-01T11:31:31.604Z,89288.00
2023-01-01T11:32:31.499Z,89282.00
2023-01-01T11:33:31.394Z,89278.00
2023-01-01T11:34:31.296Z,89284.00
2023-01-01T11:35:31.202Z,89282.00
2023-01-01T11:36:31.108Z,89284.00
2023-01-01T11:37:30.977Z,89286.00
2023-01-01T11:38:30.868Z,89282.00
2023-01-01T11:39:30.770Z,89274.00
2023-01-01T11:40:30.749Z,89274.00
2023-01-01T11:41:30.558Z,89276.00
2023-01-01T11:42:30.472Z,89266.00
2023-01-01T11:43:30.350Z,89272.00
2023-01-01T11:44:30.259Z,89268.00
2023-01-01T11:45:35.736Z,89272.00
2023-01-01T11:46:31.113Z,89266.00
2023-01-01T11:47:29.949Z,89270.00